Time;durP1;ratioP1;P1;durP2;ratioP2;P2;SDS_P1;SDS_P2;PMS_P1;PMS_P2;Temp;Humidity;BMP_temperature;BMP_pressure;BME280_temperature;BME280_humidity;BME280_pressure;Samples;Min_cycle;Max_cycle;Signal;HPM_P1;HPM_P2
2022/06/24 00:01:57;;;;;;;5.00;2.75;;;;;;;;;;6103669;23;20173;-58
2022/06/24 00:04:25;;;;;;;4.22;2.63;;;;;;;;;;6128096;23;20631;-58
2022/06/24 00:06:53;;;;;;;6.55;2.90;;;;;;;;;;6128481;23;20174;-57
2022/06/24 00:09:20;;;;;;;6.40;2.65;;;;;;;;;;6128017;23;20174;-58
2022/06/24 00:12:01;;;;;;;7.60;2.85;;;;;;;;;;6102807;23;20181;-57
2022/06/24 00:14:28;;;;;;;9.73;2.72;;;;;;;;;;6128574;23;20169;-58
2022/06/24 00:17:03;;;;;;;5.95;2.42;;;;;;;;;;6103076;23;20181;-58
2022/06/24 00:19:32;;;;;;;9.32;2.85;;;;;;;;;;6128139;23;20463;-58
2022/06/24 00:22:11;;;;;;;10.50;2.97;;;;;;;;;;6128400;23;20181;-57
2022/06/24 00:24:39;;;;;;;5.72;2.72;;;;;;;;;;6127959;23;20668;-57
2022/06/24 00:27:22;;;;;;;6.78;3.05;;;;;;;;;;6128294;23;20237;-58
2022/06/24 00:29:50;;;;;;;7.65;2.80;;;;;;;;;;6128716;23;20166;-58
2022/06/24 00:32:31;;;;;;;16.38;3.00;;;;;;;;;;6130284;23;20265;-57
2022/06/24 00:35:09;;;;;;;12.73;2.97;;;;;;;;;;6130343;23;20181;-57
2022/06/24 00:37:38;;;;;;;10.82;3.25;;;;;;;;;;6129939;23;20225;-57
2022/06/24 00:40:11;;;;;;;7.57;3.00;;;;;;;;;;6129843;23;20613;-58
2022/06/24 00:42:46;;;;;;;11.70;3.30;;;;;;;;;;6129797;23;20241;-58
2022/06/24 00:45:22;;;;;;;14.13;3.47;;;;;;;;;;6130550;23;20161;-58
2022/06/24 00:47:50;;;;;;;16.10;3.30;;;;;;;;;;6130155;23;20158;-51
2022/06/24 00:50:21;;;;;;;18.42;2.75;;;;;;;;;;6130264;23;20455;-58
2022/06/24 00:52:51;;;;;;;21.52;2.90;;;;;;;;;;6130128;23;20665;-58
2022/06/24 00:55:21;;;;;;;12.38;2.58;;;;;;;;;;6129744;23;20694;-58
2022/06/24 00:57:48;;;;;;;9.45;2.80;;;;;;;;;;6104341;23;20201;-55
2022/06/24 01:00:16;;;;;;;18.67;2.95;;;;;;;;;;6129732;23;20609;-57
2022/06/24 01:02:46;;;;;;;11.35;3.58;;;;;;;;;;6130072;23;20178;-54
2022/06/24 01:05:13;;;;;;;16.13;3.13;;;;;;;;;;6130074;23;20196;-56
2022/06/24 01:07:41;;;;;;;11.57;2.67;;;;;;;;;;6129538;23;20174;-55
2022/06/24 01:10:09;;;;;;;16.10;2.42;;;;;;;;;;6129536;23;20193;-56
2022/06/24 01:12:37;;;;;;;12.98;2.58;;;;;;;;;;6129544;23;20171;-56
2022/06/24 01:15:05;;;;;;;15.43;2.35;;;;;;;;;;6130072;23;20179;-54
2022/06/24 01:17:32;;;;;;;14.13;2.47;;;;;;;;;;6129876;23;20170;-57
2022/06/24 01:19:59;;;;;;;16.38;2.53;;;;;;;;;;6130285;23;20173;-57
2022/06/24 01:22:26;;;;;;;12.82;3.05;;;;;;;;;;6129567;23;20226;-57
2022/06/24 01:24:54;;;;;;;4.93;3.20;;;;;;;;;;6129206;23;20205;-55
2022/06/24 01:27:21;;;;;;;8.88;2.95;;;;;;;;;;6130008;23;20204;-57
2022/06/24 01:29:49;;;;;;;6.53;3.50;;;;;;;;;;6129083;23;20193;-56
2022/06/24 01:32:17;;;;;;;10.35;3.40;;;;;;;;;;6129070;23;20174;-55
2022/06/24 01:34:44;;;;;;;10.70;3.28;;;;;;;;;;6079568;23;20174;-55
2022/06/24 01:37:11;;;;;;;11.50;2.80;;;;;;;;;;6129372;23;20171;-57
2022/06/24 01:39:38;;;;;;;15.32;3.22;;;;;;;;;;6129415;23;20174;-57
2022/06/24 01:42:06;;;;;;;16.75;2.80;;;;;;;;;;6128882;23;20174;-56
2022/06/24 01:44:34;;;;;;;13.68;2.83;;;;;;;;;;6129257;23;20237;-57
2022/06/24 01:47:02;;;;;;;13.93;3.55;;;;;;;;;;6129470;23;20185;-56
2022/06/24 01:49:29;;;;;;;12.55;3.10;;;;;;;;;;6129165;23;20229;-56
2022/06/24 01:51:59;;;;;;;11.68;2.80;;;;;;;;;;6128912;23;20485;-56
2022/06/24 01:54:27;;;;;;;19.25;3.10;;;;;;;;;;6129358;23;20177;-55
2022/06/24 01:56:54;;;;;;;17.75;3.03;;;;;;;;;;6129218;23;20174;-57
2022/06/24 01:59:22;;;;;;;16.42;3.38;;;;;;;;;;6127712;23;20449;-57
2022/06/24 02:01:49;;;;;;;12.20;3.53;;;;;;;;;;6129200;23;20181;-58
2022/06/24 02:04:16;;;;;;;17.60;3.40;;;;;;;;;;6128672;23;20201;-57
2022/06/24 02:06:43;;;;;;;22.17;3.70;;;;;;;;;;6128594;23;20181;-57
2022/06/24 02:09:10;;;;;;;18.23;3.78;;;;;;;;;;6129232;23;20170;-57
2022/06/24 02:14:24;;;;;;;13.27;3.50;;;;;;;;;;6129141;23;20162;-58
2022/06/24 02:16:51;;;;;;;13.27;3.10;;;;;;;;;;6103780;23;20170;-57
2022/06/24 02:19:19;;;;;;;17.80;3.70;;;;;;;;;;6129068;23;20245;-58
2022/06/24 02:21:47;;;;;;;23.17;3.33;;;;;;;;;;6129126;23;20177;-56
2022/06/24 02:24:15;;;;;;;16.10;3.33;;;;;;;;;;6128817;23;20253;-55
2022/06/24 02:26:43;;;;;;;10.57;3.05;;;;;;;;;;6128932;23;20174;-57
2022/06/24 02:29:11;;;;;;;14.73;3.00;;;;;;;;;;6128476;23;20601;-56
2022/06/24 02:31:39;;;;;;;20.33;3.28;;;;;;;;;;6128715;23;20178;-57
2022/06/24 02:34:06;;;;;;;10.75;3.10;;;;;;;;;;6128791;23;20624;-56
2022/06/24 02:36:33;;;;;;;9.25;3.13;;;;;;;;;;6128737;23;20605;-56
2022/06/24 02:39:02;;;;;;;7.13;3.40;;;;;;;;;;6128729;23;20174;-57
2022/06/24 02:41:29;;;;;;;20.88;3.72;;;;;;;;;;6128708;23;20178;-57
2022/06/24 02:43:56;;;;;;;27.15;4.15;;;;;;;;;;6128323;23;20194;-57
2022/06/24 02:46:23;;;;;;;11.63;2.95;;;;;;;;;;6079170;23;20174;-57
2022/06/24 02:48:50;;;;;;;10.43;3.13;;;;;;;;;;6129411;23;20198;-56
2022/06/24 02:51:17;;;;;;;8.98;3.15;;;;;;;;;;6129107;23;20181;-55
2022/06/24 02:53:44;;;;;;;13.18;3.30;;;;;;;;;;6128917;23;20181;-56
2022/06/24 02:56:13;;;;;;;18.40;3.70;;;;;;;;;;6128354;23;20174;-55
2022/06/24 02:58:42;;;;;;;12.45;3.58;;;;;;;;;;6128964;23;20181;-55
2022/06/24 03:01:10;;;;;;;14.23;3.80;;;;;;;;;;6128467;23;20629;-52
2022/06/24 03:03:37;;;;;;;13.23;3.88;;;;;;;;;;6128375;23;20521;-55
2022/06/24 03:06:05;;;;;;;8.32;3.95;;;;;;;;;;6128778;23;20170;-55
2022/06/24 03:08:33;;;;;;;7.00;4.00;;;;;;;;;;6129035;23;20182;-53
2022/06/24 03:11:00;;;;;;;10.60;5.00;;;;;;;;;;6128415;23;20193;-57
2022/06/24 03:13:28;;;;;;;7.47;4.50;;;;;;;;;;6129184;23;20170;-57
2022/06/24 03:15:55;;;;;;;6.30;4.55;;;;;;;;;;6128231;23;20227;-57
2022/06/24 03:18:26;;;;;;;13.20;4.40;;;;;;;;;;6127271;23;20178;-57
2022/06/24 03:20:53;;;;;;;14.45;4.28;;;;;;;;;;6127941;23;20166;-57
2022/06/24 03:23:20;;;;;;;6.93;3.67;;;;;;;;;;6128162;23;20180;-56
2022/06/24 03:25:47;;;;;;;7.18;4.15;;;;;;;;;;6127673;23;20190;-58
2022/06/24 03:28:14;;;;;;;5.93;4.00;;;;;;;;;;6127738;23;20166;-57
2022/06/24 03:30:41;;;;;;;9.98;4.43;;;;;;;;;;6128531;23;20174;-58
2022/06/24 03:33:08;;;;;;;9.68;4.13;;;;;;;;;;6128669;23;20236;-58
2022/06/24 03:35:36;;;;;;;8.82;4.20;;;;;;;;;;6128579;23;20174;-58
2022/06/24 03:38:03;;;;;;;12.40;4.25;;;;;;;;;;6128559;23;20181;-58
2022/06/24 03:40:30;;;;;;;9.07;3.83;;;;;;;;;;6128184;23;20188;-58
2022/06/24 03:42:57;;;;;;;10.95;4.47;;;;;;;;;;6129064;23;20229;-58
2022/06/24 03:45:24;;;;;;;11.25;4.70;;;;;;;;;;6128019;23;20609;-58
2022/06/24 03:47:51;;;;;;;9.18;4.13;;;;;;;;;;6128606;23;20170;-64
2022/06/24 03:50:18;;;;;;;8.55;4.10;;;;;;;;;;6128271;23;20200;-58
2022/06/24 03:52:46;;;;;;;7.03;4.07;;;;;;;;;;6128212;23;20198;-56
2022/06/24 03:55:13;;;;;;;7.93;4.18;;;;;;;;;;6128509;23;20184;-57
2022/06/24 03:57:40;;;;;;;7.70;4.28;;;;;;;;;;6128158;23;20178;-57
2022/06/24 04:00:08;;;;;;;12.80;4.55;;;;;;;;;;6128112;23;20237;-59
2022/06/24 04:02:38;;;;;;;10.38;4.70;;;;;;;;;;6127186;23;20173;-58
2022/06/24 04:05:12;;;;;;;12.75;4.45;;;;;;;;;;6127517;23;20186;-57
2022/06/24 04:07:39;;;;;;;12.65;4.65;;;;;;;;;;6124329;23;20198;-59
2022/06/24 04:10:06;;;;;;;6.18;4.35;;;;;;;;;;6129267;23;20285;-54
2022/06/24 04:12:34;;;;;;;8.75;4.50;;;;;;;;;;6129008;23;20198;-57
2022/06/24 04:15:13;;;;;;;8.65;4.82;;;;;;;;;;6129223;23;20256;-58
2022/06/24 04:17:42;;;;;;;7.43;4.28;;;;;;;;;;6128657;23;20202;-57
2022/06/24 04:20:09;;;;;;;8.43;4.57;;;;;;;;;;6129208;23;20193;-54
2022/06/24 04:22:36;;;;;;;7.25;4.82;;;;;;;;;;6128391;23;20201;-56
2022/06/24 04:25:04;;;;;;;7.57;4.68;;;;;;;;;;6128664;23;20216;-55
2022/06/24 04:27:31;;;;;;;11.30;4.45;;;;;;;;;;6128529;23;20221;-57
2022/06/24 04:30:04;;;;;;;9.07;4.32;;;;;;;;;;6128974;23;20194;-58
2022/06/24 04:32:33;;;;;;;12.27;4.68;;;;;;;;;;6129263;23;20193;-55
2022/06/24 04:35:01;;;;;;;7.47;4.55;;;;;;;;;;6128628;23;20206;-58
2022/06/24 04:37:28;;;;;;;11.88;5.25;;;;;;;;;;6128525;23;20665;-57
2022/06/24 04:39:58;;;;;;;7.15;4.47;;;;;;;;;;6128426;23;20194;-58
2022/06/24 04:42:25;;;;;;;9.98;4.30;;;;;;;;;;6129633;23;20281;-55
2022/06/24 04:44:52;;;;;;;7.55;4.40;;;;;;;;;;6127228;23;20664;-51
2022/06/24 04:47:19;;;;;;;6.53;3.85;;;;;;;;;;6128095;23;20649;-58
2022/06/24 04:49:46;;;;;;;9.98;4.03;;;;;;;;;;6126299;23;20206;-57
2022/06/24 04:52:15;;;;;;;5.47;4.03;;;;;;;;;;6127153;23;20209;-57
2022/06/24 04:54:43;;;;;;;11.65;4.40;;;;;;;;;;6128430;23;20198;-54
2022/06/24 04:57:11;;;;;;;7.68;4.03;;;;;;;;;;6128883;23;20209;-51
2022/06/24 04:59:38;;;;;;;7.95;4.25;;;;;;;;;;6128521;23;20257;-55
2022/06/24 05:02:05;;;;;;;6.50;3.90;;;;;;;;;;6128493;23;20645;-49
2022/06/24 05:04:37;;;;;;;10.27;3.95;;;;;;;;;;6128032;23;20280;-54
2022/06/24 05:07:04;;;;;;;6.00;3.40;;;;;;;;;;6127515;23;20236;-51
2022/06/24 05:09:32;;;;;;;7.68;3.80;;;;;;;;;;6128292;23;20198;-49
2022/06/24 05:11:59;;;;;;;6.95;3.50;;;;;;;;;;6128787;23;20194;-58
2022/06/24 05:14:29;;;;;;;7.40;3.10;;;;;;;;;;6128232;23;20202;-52
2022/06/24 05:16:57;;;;;;;4.50;3.55;;;;;;;;;;6128685;23;20198;-58
2022/06/24 05:19:24;;;;;;;6.22;3.13;;;;;;;;;;6128517;23;20194;-49
2022/06/24 05:21:51;;;;;;;6.78;3.28;;;;;;;;;;6127760;23;20202;-52
2022/06/24 05:24:19;;;;;;;6.28;3.40;;;;;;;;;;6127687;23;20497;-51
2022/06/24 05:26:46;;;;;;;4.35;3.05;;;;;;;;;;6128939;23;20201;-48
2022/06/24 05:29:13;;;;;;;4.55;2.70;;;;;;;;;;6128300;23;20194;-49
2022/06/24 05:31:41;;;;;;;5.55;2.92;;;;;;;;;;6128843;23;20469;-48
2022/06/24 05:34:08;;;;;;;7.38;2.50;;;;;;;;;;6103453;23;20277;-50
2022/06/24 05:36:35;;;;;;;5.60;2.58;;;;;;;;;;6127577;23;20198;-47
2022/06/24 05:39:03;;;;;;;4.70;2.70;;;;;;;;;;6128038;23;20198;-50
2022/06/24 05:41:31;;;;;;;9.85;2.90;;;;;;;;;;6128293;23;20198;-48
2022/06/24 05:43:59;;;;;;;7.45;2.80;;;;;;;;;;6128265;23;20511;-49
2022/06/24 05:46:28;;;;;;;5.03;2.30;;;;;;;;;;6127873;23;20263;-48
2022/06/24 05:48:55;;;;;;;7.55;2.78;;;;;;;;;;6128104;23;20538;-49
2022/06/24 05:51:23;;;;;;;5.75;2.70;;;;;;;;;;6127573;23;20198;-48
2022/06/24 05:56:37;;;;;;;4.72;2.33;;;;;;;;;;6128012;23;20198;-48
2022/06/24 05:59:12;;;;;;;4.38;2.40;;;;;;;;;;6128065;23;20198;-48
2022/06/24 06:01:39;;;;;;;3.28;2.28;;;;;;;;;;6127986;23;20198;-49
2022/06/24 06:04:06;;;;;;;4.38;2.30;;;;;;;;;;6128345;23;20194;-53
2022/06/24 06:06:34;;;;;;;4.22;2.10;;;;;;;;;;6126859;23;20210;-48
2022/06/24 06:09:02;;;;;;;5.80;2.22;;;;;;;;;;6128367;23;20210;-48
2022/06/24 06:11:29;;;;;;;3.92;2.08;;;;;;;;;;6127946;23;20198;-57
2022/06/24 06:13:56;;;;;;;6.57;2.42;;;;;;;;;;6128063;23;20198;-57
2022/06/24 06:16:23;;;;;;;3.40;2.03;;;;;;;;;;6127846;23;20198;-57
2022/06/24 06:18:51;;;;;;;4.43;2.30;;;;;;;;;;6128523;23;20193;-57
2022/06/24 06:21:18;;;;;;;3.58;2.30;;;;;;;;;;6127228;23;20198;-56
2022/06/24 06:23:46;;;;;;;2.15;1.77;;;;;;;;;;6128441;23;20194;-58
2022/06/24 06:26:14;;;;;;;2.90;2.13;;;;;;;;;;6127537;23;20296;-58
2022/06/24 06:28:41;;;;;;;4.13;2.10;;;;;;;;;;6128064;23;20197;-63
2022/06/24 06:31:09;;;;;;;3.05;2.08;;;;;;;;;;6127317;23;20198;-60
2022/06/24 06:33:37;;;;;;;2.33;1.80;;;;;;;;;;6128492;23;20525;-59
2022/06/24 06:36:09;;;;;;;3.08;1.77;;;;;;;;;;6127092;23;20526;-61
2022/06/24 06:38:36;;;;;;;2.30;1.70;;;;;;;;;;6128154;23;20233;-60
2022/06/24 06:41:12;;;;;;;5.35;1.60;;;;;;;;;;6128037;23;20200;-60
2022/06/24 06:43:39;;;;;;;1.92;1.50;;;;;;;;;;6102346;23;20194;-60
2022/06/24 06:46:10;;;;;;;3.20;1.65;;;;;;;;;;6127858;23;20230;-61
2022/06/24 06:48:38;;;;;;;2.60;1.48;;;;;;;;;;6127604;23;20205;-60
2022/06/24 06:51:05;;;;;;;2.38;1.63;;;;;;;;;;6127269;23;20190;-59
2022/06/24 06:53:32;;;;;;;2.80;1.42;;;;;;;;;;6127640;23;20193;-60
2022/06/24 06:56:00;;;;;;;2.95;1.52;;;;;;;;;;6127984;23;20194;-60
2022/06/24 06:58:27;;;;;;;2.88;1.50;;;;;;;;;;6127477;23;20506;-58
2022/06/24 07:00:54;;;;;;;2.28;1.65;;;;;;;;;;6127425;23;20201;-60
2022/06/24 07:03:21;;;;;;;1.67;1.40;;;;;;;;;;6127596;23;20194;-60
2022/06/24 07:05:48;;;;;;;1.67;1.40;;;;;;;;;;6126986;23;20649;-60
2022/06/24 07:08:15;;;;;;;10.52;1.75;;;;;;;;;;6126991;23;20532;-62
2022/06/24 07:10:43;;;;;;;2.00;1.38;;;;;;;;;;6127647;23;20253;-60
2022/06/24 07:13:11;;;;;;;1.85;1.30;;;;;;;;;;6127033;23;20194;-60
2022/06/24 07:15:38;;;;;;;2.05;1.48;;;;;;;;;;6127624;23;20208;-60
2022/06/24 07:18:06;;;;;;;3.38;1.80;;;;;;;;;;6127060;23;20194;-59
2022/06/24 07:20:33;;;;;;;1.70;1.50;;;;;;;;;;6126921;23;20198;-60
2022/06/24 07:23:00;;;;;;;2.83;1.80;;;;;;;;;;6127044;23;20232;-61
2022/06/24 07:25:29;;;;;;;2.55;1.73;;;;;;;;;;6127982;23;20205;-60
2022/06/24 07:27:56;;;;;;;3.45;1.83;;;;;;;;;;6127078;23;20198;-60
2022/06/24 07:30:23;;;;;;;2.28;1.77;;;;;;;;;;6127552;23;20261;-61
2022/06/24 07:32:50;;;;;;;6.50;1.75;;;;;;;;;;6127437;23;20204;-61
2022/06/24 07:35:17;;;;;;;5.47;2.00;;;;;;;;;;6126843;23;20641;-61
2022/06/24 07:38:05;;;;;;;3.65;2.00;;;;;;;;;;6126175;23;20516;-61
2022/06/24 07:40:32;;;;;;;2.65;1.67;;;;;;;;;;6127403;23;20198;-62
2022/06/24 07:42:59;;;;;;;3.50;1.73;;;;;;;;;;6127506;23;20205;-63
2022/06/24 07:45:26;;;;;;;2.33;1.58;;;;;;;;;;6128707;23;20198;-62
2022/06/24 07:47:53;;;;;;;5.53;1.90;;;;;;;;;;6128013;23;20202;-62
2022/06/24 07:50:20;;;;;;;2.88;1.73;;;;;;;;;;6128905;23;20174;-62
2022/06/24 07:52:48;;;;;;;2.03;1.60;;;;;;;;;;6128572;23;20170;-61
2022/06/24 07:58:00;;;;;;;2.45;1.75;;;;;;;;;;6128812;23;20158;-62
2022/06/24 08:00:27;;;;;;;2.28;1.80;;;;;;;;;;6127893;23;20245;-61
2022/06/24 08:02:54;;;;;;;3.95;1.92;;;;;;;;;;6128180;23;20462;-62
2022/06/24 08:05:22;;;;;;;3.15;1.70;;;;;;;;;;6128403;23;20201;-61
2022/06/24 08:07:49;;;;;;;3.88;1.58;;;;;;;;;;6128952;23;20181;-61
2022/06/24 08:10:15;;;;;;;1.70;1.50;;;;;;;;;;6128496;23;20185;-62
2022/06/24 08:12:43;;;;;;;6.95;1.67;;;;;;;;;;6128050;23;20174;-61
2022/06/24 08:15:10;;;;;;;1.95;1.48;;;;;;;;;;6128464;23;20174;-62
2022/06/24 08:17:37;;;;;;;5.30;1.60;;;;;;;;;;6128408;23;20185;-62
2022/06/24 08:20:05;;;;;;;2.95;1.60;;;;;;;;;;6127983;23;20606;-62
2022/06/24 08:22:32;;;;;;;2.28;1.52;;;;;;;;;;6128600;23;20241;-62
2022/06/24 08:25:01;;;;;;;3.65;1.42;;;;;;;;;;6128626;23;20174;-62
2022/06/24 08:27:48;;;;;;;3.33;1.55;;;;;;;;;;6128705;23;20166;-61
2022/06/24 08:30:15;;;;;;;1.98;1.70;;;;;;;;;;6128363;23;20170;-62
2022/06/24 08:32:42;;;;;;;3.15;1.60;;;;;;;;;;6128420;23;20178;-61
2022/06/24 08:35:09;;;;;;;4.05;1.50;;;;;;;;;;6088953;23;20208;-61
2022/06/24 08:37:53;;;;;;;1.70;1.40;;;;;;;;;;6127782;23;20194;-60
2022/06/24 08:40:21;;;;;;;5.20;1.60;;;;;;;;;;6126718;23;20209;-61
2022/06/24 08:43:06;;;;;;;3.80;1.85;;;;;;;;;;6126893;23;20661;-61
2022/06/24 08:45:34;;;;;;;3.67;1.60;;;;;;;;;;6126380;23;20201;-61
2022/06/24 08:48:01;;;;;;;2.70;1.40;;;;;;;;;;6101907;23;20194;-61
2022/06/24 08:50:28;;;;;;;5.00;1.90;;;;;;;;;;6125880;23;20209;-60
2022/06/24 08:52:55;;;;;;;6.47;2.20;;;;;;;;;;6129027;23;20194;-60
2022/06/24 08:55:24;;;;;;;3.35;1.60;;;;;;;;;;6125933;23;20202;-61
2022/06/24 08:57:52;;;;;;;6.28;1.40;;;;;;;;;;6127728;23;20198;-61
2022/06/24 09:00:20;;;;;;;3.88;1.25;;;;;;;;;;6128696;23;20272;-61
2022/06/24 09:02:48;;;;;;;4.20;1.67;;;;;;;;;;6128296;23;20671;-62
2022/06/24 09:05:15;;;;;;;2.15;1.38;;;;;;;;;;6127598;23;20198;-61
2022/06/24 09:07:43;;;;;;;3.53;1.45;;;;;;;;;;6128221;23;20198;-61
2022/06/24 09:10:12;;;;;;;2.83;1.45;;;;;;;;;;6122753;23;20218;-61
2022/06/24 09:12:45;;;;;;;1.60;1.08;;;;;;;;;;6128853;23;20197;-61
2022/06/24 09:15:13;;;;;;;2.58;1.40;;;;;;;;;;6128145;23;20198;-62
2022/06/24 09:17:42;;;;;;;2.70;1.10;;;;;;;;;;6128583;23;20190;-62
2022/06/24 09:20:10;;;;;;;1.58;1.27;;;;;;;;;;6102510;23;20203;-60
2022/06/24 09:23:02;;;;;;;1.83;1.20;;;;;;;;;;6128777;23;20194;-60
2022/06/24 09:25:50;;;;;;;3.78;1.42;;;;;;;;;;6128246;23;20272;-59
2022/06/24 09:28:28;;;;;;;4.88;1.98;;;;;;;;;;6128947;23;20197;-61
2022/06/24 09:31:05;;;;;;;5.95;2.28;;;;;;;;;;6128229;23;20194;-61
2022/06/24 09:33:41;;;;;;;9.55;1.98;;;;;;;;;;6129213;23;20255;-61
2022/06/24 09:36:12;;;;;;;3.47;1.40;;;;;;;;;;6127892;23;20256;-62
2022/06/24 09:39:12;;;;;;;3.63;1.40;;;;;;;;;;6128511;23;20203;-62
2022/06/24 09:41:48;;;;;;;3.50;1.55;;;;;;;;;;6010565;23;20196;-62
2022/06/24 09:44:16;;;;;;;2.33;1.15;;;;;;;;;;6011186;23;20197;-62
2022/06/24 09:46:44;;;;;;;3.10;1.10;;;;;;;;;;6010362;23;20660;-62
2022/06/24 09:49:16;;;;;;;2.47;1.27;;;;;;;;;;6010223;23;20549;-62
2022/06/24 09:51:44;;;;;;;4.03;1.52;;;;;;;;;;6008669;23;20205;-61
2022/06/24 09:54:13;;;;;;;3.47;1.48;;;;;;;;;;6010241;23;20273;-61
2022/06/24 09:56:40;;;;;;;3.65;1.75;;;;;;;;;;6009184;23;20619;-62
2022/06/24 10:01:54;;;;;;;3.03;1.48;;;;;;;;;;5990106;23;20169;-62
2022/06/24 10:04:22;;;;;;;3.33;1.65;;;;;;;;;;5986463;23;20609;-62
2022/06/24 10:06:49;;;;;;;4.10;1.42;;;;;;;;;;6009901;23;20286;-62
2022/06/24 10:09:25;;;;;;;1.45;1.20;;;;;;;;;;6010070;23;20240;-62
2022/06/24 10:11:56;;;;;;;2.40;1.40;;;;;;;;;;5987092;23;20176;-62
2022/06/24 10:14:24;;;;;;;2.03;1.45;;;;;;;;;;6010085;23;20193;-62
2022/06/24 10:16:51;;;;;;;4.47;1.42;;;;;;;;;;6044009;23;20193;-62
2022/06/24 10:19:23;;;;;;;2.00;1.40;;;;;;;;;;6127705;23;20185;-61
2022/06/24 10:21:51;;;;;;;1.42;1.30;;;;;;;;;;6102576;23;20644;-61
2022/06/24 10:24:18;;;;;;;2.28;1.30;;;;;;;;;;6128154;23;20185;-62
2022/06/24 10:26:47;;;;;;;2.75;1.60;;;;;;;;;;6127898;23;20197;-62
2022/06/24 10:29:14;;;;;;;2.33;1.33;;;;;;;;;;6129751;23;20475;-56
2022/06/24 10:31:56;;;;;;;2.88;1.35;;;;;;;;;;6129215;23;20174;-63
2022/06/24 10:34:27;;;;;;;3.75;1.35;;;;;;;;;;6128961;23;20178;-61
2022/06/24 10:37:04;;;;;;;3.55;1.50;;;;;;;;;;6127653;23;20245;-62
2022/06/24 10:39:34;;;;;;;2.63;1.52;;;;;;;;;;6128013;23;20443;-61
2022/06/24 10:42:06;;;;;;;2.10;1.58;;;;;;;;;;6127807;23;20180;-63
2022/06/24 10:44:37;;;;;;;9.50;1.60;;;;;;;;;;6127515;23;20178;-64
2022/06/24 10:47:04;;;;;;;1.55;1.38;;;;;;;;;;6128562;23;20583;-63
2022/06/24 10:50:00;;;;;;;1.85;1.38;;;;;;;;;;6128940;23;20289;-63
2022/06/24 10:52:34;;;;;;;2.88;1.23;;;;;;;;;;6128617;23;20162;-62
2022/06/24 10:58:04;;;;;;;3.47;1.60;;;;;;;;;;6126801;23;20537;-63
2022/06/24 11:00:37;;;;;;;1.90;1.25;;;;;;;;;;6128064;23;20170;-62
2022/06/24 11:03:08;;;;;;;1.65;1.27;;;;;;;;;;6128635;23;20155;-63
2022/06/24 11:05:38;;;;;;;3.00;1.30;;;;;;;;;;6128481;23;20170;-64
2022/06/24 11:08:22;;;;;;;2.30;1.50;;;;;;;;;;6128180;23;20181;-63
2022/06/24 11:10:50;;;;;;;1.98;1.40;;;;;;;;;;6135776;23;20154;-63
2022/06/24 11:13:18;;;;;;;3.35;1.52;;;;;;;;;;6128437;23;20174;-63
2022/06/24 11:15:54;;;;;;;4.70;1.40;;;;;;;;;;6127348;23;20185;-62
2022/06/24 11:18:28;;;;;;;1.83;1.20;;;;;;;;;;6127624;23;20490;-63
2022/06/24 11:21:02;;;;;;;3.13;1.80;;;;;;;;;;6126674;23;20660;-63
2022/06/24 11:23:34;;;;;;;2.92;1.58;;;;;;;;;;6127966;23;20162;-62
2022/06/24 11:26:10;;;;;;;3.85;1.88;;;;;;;;;;6128757;23;20249;-61
2022/06/24 11:28:39;;;;;;;4.40;1.27;;;;;;;;;;6129587;23;20158;-59
2022/06/24 11:31:21;;;;;;;5.18;1.77;;;;;;;;;;6127951;23;20530;-59
2022/06/24 11:33:51;;;;;;;3.40;1.73;;;;;;;;;;6128782;23;20155;-65
2022/06/24 11:36:23;;;;;;;4.90;1.83;;;;;;;;;;6127659;23;20193;-62
2022/06/24 11:38:56;;;;;;;4.47;1.58;;;;;;;;;;6127370;23;20166;-65
2022/06/24 11:41:30;;;;;;;2.08;1.33;;;;;;;;;;6127393;23;20158;-56
2022/06/24 11:44:37;;;;;;;2.75;1.65;;;;;;;;;;6126855;23;20155;-60
2022/06/24 11:47:05;;;;;;;3.42;1.38;;;;;;;;;;6125852;23;20209;-61
2022/06/24 11:49:34;;;;;;;2.53;1.65;;;;;;;;;;6125931;23;20212;-60
2022/06/24 11:52:02;;;;;;;7.38;1.70;;;;;;;;;;6124857;23;20188;-61
2022/06/24 11:54:30;;;;;;;2.72;1.55;;;;;;;;;;6124660;23;20628;-62
2022/06/24 11:56:58;;;;;;;3.25;1.60;;;;;;;;;;6124638;23;20189;-60
2022/06/24 11:59:26;;;;;;;2.83;1.42;;;;;;;;;;6120492;23;20205;-63
2022/06/24 12:01:54;;;;;;;2.35;1.50;;;;;;;;;;6124370;23;20225;-61
2022/06/24 12:04:23;;;;;;;1.70;1.50;;;;;;;;;;6126305;23;20212;-56
2022/06/24 12:06:58;;;;;;;2.22;1.60;;;;;;;;;;6102236;23;20314;-63
2022/06/24 12:09:29;;;;;;;1.95;1.70;;;;;;;;;;6102410;23;20533;-57
2022/06/24 12:12:08;;;;;;;1.73;1.50;;;;;;;;;;6127045;23;20198;-64
2022/06/24 12:14:35;;;;;;;2.65;1.52;;;;;;;;;;6126579;23;20201;-62
2022/06/24 12:17:09;;;;;;;3.00;1.50;;;;;;;;;;6127592;23;20252;-60
2022/06/24 12:19:54;;;;;;;6.28;1.58;;;;;;;;;;6126770;23;20473;-62
2022/06/24 12:22:21;;;;;;;2.33;1.60;;;;;;;;;;6127853;23;20213;-61
2022/06/24 12:25:07;;;;;;;4.32;1.85;;;;;;;;;;6126834;23;20197;-62
2022/06/24 12:27:35;;;;;;;6.68;1.63;;;;;;;;;;6128018;23;20284;-63
2022/06/24 12:30:06;;;;;;;1.67;1.30;;;;;;;;;;6128905;23;20198;-62
2022/06/24 12:32:56;;;;;;;1.88;1.70;;;;;;;;;;6103913;23;20182;-63
2022/06/24 12:35:34;;;;;;;5.00;1.65;;;;;;;;;;6129526;23;20188;-64
2022/06/24 12:38:05;;;;;;;2.95;1.40;;;;;;;;;;6128532;23;20162;-63
2022/06/24 12:40:32;;;;;;;1.45;1.30;;;;;;;;;;6102726;23;20233;-62
2022/06/24 12:43:11;;;;;;;3.25;1.35;;;;;;;;;;6130138;23;20185;-63
2022/06/24 12:45:41;;;;;;;2.42;1.45;;;;;;;;;;6129791;23;20197;-63
2022/06/24 12:51:04;;;;;;;1.80;1.60;;;;;;;;;;6130158;23;20253;-63
2022/06/24 12:53:31;;;;;;;2.55;1.83;;;;;;;;;;6131221;23;20225;-63
2022/06/24 12:55:59;;;;;;;4.85;1.80;;;;;;;;;;6130080;23;20174;-62
2022/06/24 12:58:26;;;;;;;1.90;1.50;;;;;;;;;;6104400;23;20609;-63
2022/06/24 13:00:54;;;;;;;4.22;1.80;;;;;;;;;;6130789;23;20170;-63
2022/06/24 13:03:23;;;;;;;1.90;1.70;;;;;;;;;;6130087;23;20174;-63
2022/06/24 13:05:51;;;;;;;2.40;1.65;;;;;;;;;;6129986;23;20174;-62
2022/06/24 13:08:17;;;;;;;3.75;1.60;;;;;;;;;;6129879;23;20194;-62
2022/06/24 13:10:45;;;;;;;2.88;1.85;;;;;;;;;;6130325;23;20170;-62
2022/06/24 13:13:12;;;;;;;4.85;2.47;;;;;;;;;;6129629;23;20175;-63
2022/06/24 13:15:39;;;;;;;3.65;2.15;;;;;;;;;;6129918;23;20170;-63
2022/06/24 13:18:06;;;;;;;7.15;2.20;;;;;;;;;;6129510;23;20181;-63
2022/06/24 13:20:33;;;;;;;5.28;2.35;;;;;;;;;;6129912;23;20178;-62
2022/06/24 13:23:00;;;;;;;2.13;1.85;;;;;;;;;;6130053;23;20181;-62
2022/06/24 13:25:28;;;;;;;5.35;2.08;;;;;;;;;;6129381;23;20598;-63
2022/06/24 13:27:55;;;;;;;2.33;1.75;;;;;;;;;;6129986;23;20201;-63
2022/06/24 13:30:22;;;;;;;2.70;1.90;;;;;;;;;;6129141;23;20185;-64
2022/06/24 13:32:49;;;;;;;4.70;2.08;;;;;;;;;;6129747;23;20174;-63
2022/06/24 13:35:16;;;;;;;3.47;2.05;;;;;;;;;;6129801;23;20170;-62
2022/06/24 13:37:43;;;;;;;4.43;1.85;;;;;;;;;;6128903;23;20174;-63
2022/06/24 13:40:11;;;;;;;2.08;1.52;;;;;;;;;;6129440;23;20170;-62
2022/06/24 13:42:38;;;;;;;3.75;1.70;;;;;;;;;;6129625;23;20283;-62
2022/06/24 13:45:07;;;;;;;2.20;1.60;;;;;;;;;;6130216;23;20170;-62
2022/06/24 13:47:34;;;;;;;5.38;1.45;;;;;;;;;;6129205;23;20625;-63
2022/06/24 13:50:04;;;;;;;4.15;1.40;;;;;;;;;;6129519;23;20198;-63
2022/06/24 13:52:31;;;;;;;3.75;1.42;;;;;;;;;;6129312;23;20181;-62
2022/06/24 13:54:59;;;;;;;2.67;1.63;;;;;;;;;;6129034;23;20170;-65
2022/06/24 13:57:26;;;;;;;5.68;1.70;;;;;;;;;;6129482;23;20189;-71
2022/06/24 13:59:54;;;;;;;2.60;1.90;;;;;;;;;;6129399;23;20185;-64
2022/06/24 14:02:22;;;;;;;3.67;1.85;;;;;;;;;;6129698;23;20175;-66
2022/06/24 14:04:54;;;;;;;2.47;1.45;;;;;;;;;;6129551;23;20166;-66
2022/06/24 14:07:22;;;;;;;3.58;1.60;;;;;;;;;;6128958;23;20493;-64
2022/06/24 14:09:49;;;;;;;5.05;1.60;;;;;;;;;;6130076;23;20181;-64
2022/06/24 14:12:36;;;;;;;1.73;1.40;;;;;;;;;;6129419;23;20172;-65
2022/06/24 14:15:05;;;;;;;4.68;1.60;;;;;;;;;;6129537;23;20185;-66
2022/06/24 14:17:32;;;;;;;4.70;1.92;;;;;;;;;;6129296;23;20213;-66
2022/06/24 14:20:04;;;;;;;3.40;1.77;;;;;;;;;;6129014;23;20261;-63
2022/06/24 14:22:31;;;;;;;3.15;1.58;;;;;;;;;;6128942;23;20185;-59
2022/06/24 14:24:58;;;;;;;3.20;1.70;;;;;;;;;;6129342;23;20174;-61
2022/06/24 14:27:26;;;;;;;1.50;1.40;;;;;;;;;;6129465;23;20193;-63
2022/06/24 14:29:53;;;;;;;3.67;1.85;;;;;;;;;;6128794;23;20174;-61
2022/06/24 14:32:21;;;;;;;2.95;1.70;;;;;;;;;;6129166;23;20186;-57
2022/06/24 14:34:48;;;;;;;3.47;1.80;;;;;;;;;;6128765;23;20173;-60
2022/06/24 14:40:12;;;;;;;4.72;1.55;;;;;;;;;;6128811;23;20162;-61
2022/06/24 14:43:01;;;;;;;5.45;1.70;;;;;;;;;;6129668;23;20155;-60
2022/06/24 14:45:28;;;;;;;1.88;1.48;;;;;;;;;;6128642;23;20185;-60
2022/06/24 14:47:55;;;;;;;3.38;1.48;;;;;;;;;;6129220;23;20194;-61
2022/06/24 14:50:22;;;;;;;4.45;1.55;;;;;;;;;;6128971;23;20213;-61
2022/06/24 14:52:49;;;;;;;2.47;1.75;;;;;;;;;;6128619;23;20174;-61
2022/06/24 14:55:22;;;;;;;4.53;1.55;;;;;;;;;;6129619;23;20219;-63
2022/06/24 14:57:50;;;;;;;2.80;1.60;;;;;;;;;;6128616;23;20178;-63
2022/06/24 15:00:17;;;;;;;2.63;1.70;;;;;;;;;;6129036;23;20170;-49
2022/06/24 15:02:45;;;;;;;3.25;1.65;;;;;;;;;;6129046;23;20240;-58
2022/06/24 15:05:12;;;;;;;2.92;1.50;;;;;;;;;;6126394;23;20170;-62
2022/06/24 15:07:40;;;;;;;2.15;1.67;;;;;;;;;;6054652;23;20487;-59
2022/06/24 15:10:08;;;;;;;1.80;1.50;;;;;;;;;;6129071;23;20182;-64
2022/06/24 15:12:35;;;;;;;1.92;1.58;;;;;;;;;;6123962;23;20198;-67
2022/06/24 15:15:04;;;;;;;1.95;1.65;;;;;;;;;;6127998;23;20201;-66